createdAt,value
2018-02-08T00:01:34.307Z,-1.10
2018-02-08T00:04:02.327Z,-1.10
2018-02-08T00:06:30.398Z,-1.10
2018-02-08T00:08:57.940Z,-1.00
2018-02-08T00:11:25.512Z,-1.20
2018-02-08T00:13:53.067Z,-1.20
2018-02-08T00:16:20.616Z,-1.20
2018-02-08T00:18:48.180Z,-1.20
2018-02-08T00:21:16.635Z,-1.20
2018-02-08T00:23:44.190Z,-1.20
2018-02-08T00:26:12.063Z,-1.10
2018-02-08T00:28:39.606Z,-1.10
2018-02-08T00:31:07.959Z,-1.10
2018-02-08T00:33:35.849Z,-1.10
2018-02-08T00:36:03.431Z,-1.10
2018-02-08T00:38:31.003Z,-1.00
2018-02-08T00:40:58.582Z,-1.00
2018-02-08T00:43:26.133Z,-1.10
2018-02-08T00:45:53.683Z,-1.10
2018-02-08T00:48:21.539Z,-1.10
2018-02-08T00:50:49.091Z,-1.00
2018-02-08T00:53:16.634Z,-1.00
2018-02-08T00:55:44.234Z,-1.00
2018-02-08T00:58:11.792Z,-0.90
2018-02-08T01:00:39.331Z,-1.00
2018-02-08T01:03:06.931Z,-0.90
2018-02-08T01:05:34.476Z,-1.00
2018-02-08T01:08:02.428Z,-1.00
2018-02-08T01:10:30.024Z,-1.10
2018-02-08T01:12:57.574Z,-1.20
2018-02-08T01:15:25.111Z,-1.10
2018-02-08T01:17:52.680Z,-1.10
2018-02-08T01:20:20.224Z,-1.20
2018-02-08T01:22:47.775Z,-1.20
2018-02-08T01:25:15.648Z,-1.10
2018-02-08T01:27:43.195Z,-1.20
2018-02-08T01:30:10.736Z,-1.10
2018-02-08T01:32:39.409Z,-1.10
2018-02-08T01:35:06.971Z,-1.10
2018-02-08T01:37:34.515Z,-1.10
2018-02-08T01:40:02.087Z,-1.10
2018-02-08T01:42:29.631Z,-1.10
2018-02-08T01:44:57.171Z,-1.20
2018-02-08T01:47:24.743Z,-1.20
2018-02-08T01:49:52.284Z,-1.20
2018-02-08T01:52:19.875Z,-1.20
2018-02-08T01:54:47.942Z,-1.10
2018-02-08T01:57:15.527Z,-1.20
2018-02-08T01:59:43.064Z,-1.10
2018-02-08T02:02:10.695Z,-1.10
2018-02-08T02:04:38.242Z,-1.20
2018-02-08T02:07:05.779Z,-1.20
2018-02-08T02:09:33.615Z,-1.20
2018-02-08T02:12:01.315Z,-1.20
2018-02-08T02:14:29.619Z,-1.20
2018-02-08T02:16:57.515Z,-1.20
2018-02-08T02:19:25.064Z,-1.20
2018-02-08T02:21:52.603Z,-1.10
2018-02-08T02:24:20.171Z,-1.10
2018-02-08T02:26:47.710Z,-1.10
2018-02-08T02:29:15.550Z,-1.10
2018-02-08T02:31:43.115Z,-1.10
2018-02-08T02:34:11.438Z,-1.10
2018-02-08T02:36:38.975Z,-1.10
2018-02-08T02:39:06.999Z,-1.10
2018-02-08T02:41:34.544Z,-1.10
2018-02-08T02:44:02.090Z,-1.00
2018-02-08T02:46:29.663Z,-1.00
2018-02-08T02:48:57.205Z,-1.00
2018-02-08T02:51:24.759Z,-1.00
2018-02-08T02:53:52.324Z,-1.00
2018-02-08T02:56:19.862Z,-1.00
2018-02-08T02:58:47.399Z,-1.00
2018-02-08T03:01:16.084Z,-1.10
2018-02-08T03:03:44.431Z,-1.10
2018-02-08T03:06:11.966Z,-1.10
2018-02-08T03:08:39.536Z,-1.10
2018-02-08T03:11:07.419Z,-1.00
2018-02-08T03:13:35.166Z,-1.10
2018-02-08T03:16:02.731Z,-1.20
2018-02-08T03:18:30.272Z,-1.10
2018-02-08T03:20:57.815Z,-1.20
2018-02-08T03:23:26.230Z,-1.10
2018-02-08T03:25:53.772Z,-1.20
2018-02-08T03:28:21.322Z,-1.10
2018-02-08T03:30:48.889Z,-1.10
2018-02-08T03:33:16.514Z,-1.10
2018-02-08T03:35:44.057Z,-1.10
2018-02-08T03:38:11.623Z,-1.10
2018-02-08T03:40:39.163Z,-1.10
2018-02-08T03:43:06.703Z,-1.10
2018-02-08T03:45:34.584Z,-1.10
2018-02-08T03:48:02.123Z,-1.10
2018-02-08T03:50:29.667Z,-1.10
2018-02-08T03:52:57.254Z,-1.10
2018-02-08T03:55:24.791Z,-1.10
2018-02-08T03:57:52.331Z,-1.10
2018-02-08T04:00:19.903Z,-1.10
2018-02-08T04:02:47.464Z,-1.00
2018-02-08T04:05:16.535Z,-1.00
2018-02-08T04:07:45.439Z,-1.00
2018-02-08T04:10:27.826Z,-1.00
2018-02-08T04:15:26.799Z,-1.10
2018-02-08T04:17:54.340Z,-1.10
2018-02-08T04:20:21.880Z,-1.20
2018-02-08T04:22:49.790Z,-1.10
2018-02-08T04:25:17.354Z,-1.20
2018-02-08T04:27:44.910Z,-1.10
2018-02-08T04:30:12.479Z,-1.10
2018-02-08T04:32:40.024Z,-1.10
2018-02-08T04:35:07.573Z,-1.10
2018-02-08T04:37:35.167Z,-1.00
2018-02-08T04:40:14.580Z,-1.00
2018-02-08T04:42:54.187Z,-1.00
2018-02-08T04:45:33.391Z,-1.00
2018-02-08T04:48:07.798Z,-1.00
2018-02-08T04:50:35.338Z,-1.00
2018-02-08T04:53:02.876Z,-1.00
2018-02-08T04:55:31.286Z,-1.10
2018-02-08T04:57:58.851Z,-1.10
2018-02-08T05:00:26.478Z,-1.00
2018-02-08T05:02:56.830Z,-1.10
2018-02-08T05:05:24.371Z,-1.00
2018-02-08T05:07:51.906Z,-1.00
2018-02-08T05:10:19.490Z,-1.00
2018-02-08T05:12:47.032Z,-1.00
2018-02-08T05:15:30.851Z,-0.90
2018-02-08T05:21:22.071Z,-1.00
2018-02-08T05:23:49.606Z,-1.10
2018-02-08T05:26:17.147Z,-1.10
2018-02-08T05:28:44.745Z,-1.10
2018-02-08T05:31:12.294Z,-1.00
2018-02-08T05:33:39.838Z,-1.00
2018-02-08T05:36:07.403Z,-1.00
2018-02-08T05:38:35.041Z,-1.00
2018-02-08T05:41:02.595Z,-0.90
2018-02-08T05:43:31.012Z,-1.00
2018-02-08T05:45:58.639Z,-0.90
2018-02-08T05:48:26.251Z,-0.90
2018-02-08T05:51:02.242Z,-1.00
2018-02-08T05:53:29.791Z,-0.90
2018-02-08T05:55:58.135Z,-1.00
2018-02-08T05:58:25.715Z,-1.00
2018-02-08T06:00:53.264Z,-1.00
2018-02-08T06:03:20.807Z,-1.00
2018-02-08T06:05:48.943Z,-1.00
2018-02-08T06:08:16.654Z,-1.00
2018-02-08T06:10:44.208Z,-1.10
2018-02-08T06:13:11.797Z,-1.00
2018-02-08T06:15:39.338Z,-1.00
2018-02-08T06:18:06.883Z,-1.10
2018-02-08T06:20:34.451Z,-0.90
2018-02-08T06:23:02.484Z,-1.00
2018-02-08T06:25:30.048Z,-1.10
2018-02-08T06:27:57.667Z,-1.00
2018-02-08T06:30:25.207Z,-1.00
2018-02-08T06:32:52.750Z,-1.00
2018-02-08T06:35:20.323Z,-1.00
2018-02-08T06:37:47.871Z,-1.00
2018-02-08T06:40:16.514Z,-1.10
2018-02-08T06:42:44.102Z,-1.10
2018-02-08T06:45:11.639Z,-1.10
2018-02-08T06:47:39.183Z,-1.10
2018-02-08T06:50:07.519Z,-1.10
2018-02-08T06:52:35.103Z,-1.10
2018-02-08T06:55:02.651Z,-1.10
2018-02-08T06:57:30.223Z,-1.10
2018-02-08T06:59:57.762Z,-1.00
2018-02-08T07:02:25.309Z,-1.00
2018-02-08T07:04:52.879Z,-1.00
2018-02-08T07:07:20.419Z,-0.90
2018-02-08T07:09:47.968Z,-0.90
2018-02-08T07:12:17.611Z,-0.90
2018-02-08T07:14:45.256Z,-0.90
2018-02-08T07:17:13.724Z,-0.80
2018-02-08T07:19:41.290Z,-0.80
2018-02-08T07:22:08.831Z,-0.80
2018-02-08T07:24:36.518Z,-0.80
2018-02-08T07:27:04.083Z,-0.70
2018-02-08T07:29:31.618Z,-0.70
2018-02-08T07:31:59.159Z,-0.70
2018-02-08T07:34:28.102Z,-0.60
2018-02-08T07:36:55.644Z,-0.70
2018-02-08T07:39:23.241Z,-0.60
2018-02-08T07:41:50.787Z,-0.50
2018-02-08T07:44:18.803Z,-0.40
2018-02-08T07:46:46.349Z,-0.40
2018-02-08T07:49:16.354Z,-0.40
2018-02-08T07:51:43.899Z,-0.40
2018-02-08T07:54:11.453Z,-0.30
2018-02-08T07:56:39.857Z,-0.30
2018-02-08T07:59:07.410Z,-0.20
2018-02-08T08:01:34.951Z,-0.10
2018-02-08T08:04:02.524Z,-0.10
2018-02-08T08:06:30.075Z,-0.10
2018-02-08T08:08:57.751Z,0.10
2018-02-08T08:11:25.319Z,0.20
2018-02-08T08:13:52.856Z,0.10
2018-02-08T08:16:20.388Z,0.20
2018-02-08T08:18:48.488Z,0.20
2018-02-08T08:21:16.428Z,0.20
2018-02-08T08:23:43.962Z,0.30
2018-02-08T08:26:12.361Z,0.50
2018-02-08T08:28:39.943Z,0.50
2018-02-08T08:31:07.481Z,0.40
2018-02-08T08:33:35.099Z,0.60
2018-02-08T08:36:02.642Z,0.70
2018-02-08T08:38:30.196Z,0.90
2018-02-08T08:40:58.102Z,1.10
2018-02-08T08:43:26.419Z,1.20
2018-02-08T08:45:53.977Z,1.20
2018-02-08T08:48:21.760Z,1.30
2018-02-08T08:50:49.308Z,1.30
2018-02-08T08:53:16.863Z,1.30
2018-02-08T08:55:44.463Z,1.40
2018-02-08T08:58:12.021Z,1.40
2018-02-08T09:00:39.563Z,1.30
2018-02-08T09:03:07.822Z,1.30
2018-02-08T09:05:35.367Z,1.30
2018-02-08T09:08:02.915Z,1.30
2018-02-08T09:10:31.279Z,1.50
2018-02-08T09:12:59.603Z,1.50
2018-02-08T09:15:27.927Z,1.60
2018-02-08T09:17:55.547Z,1.60
2018-02-08T09:20:23.089Z,1.70
2018-02-08T09:22:50.627Z,1.80
2018-02-08T09:25:18.771Z,1.80
2018-02-08T09:27:46.771Z,1.90
2018-02-08T09:30:26.478Z,2.30
2018-02-08T09:38:59.061Z,2.30
2018-02-08T09:41:26.599Z,2.30
2018-02-08T09:43:54.147Z,2.50
2018-02-08T09:46:21.771Z,2.70
2018-02-08T09:48:49.302Z,2.90
2018-02-08T09:51:16.839Z,2.90
2018-02-08T09:53:45.168Z,3.00
2018-02-08T09:56:13.633Z,3.00
2018-02-08T09:58:41.163Z,3.00
2018-02-08T10:01:08.727Z,3.30
2018-02-08T10:03:36.279Z,3.40
2018-02-08T10:06:03.822Z,2.90
2018-02-08T10:08:32.379Z,3.20
2018-02-08T10:10:59.919Z,3.20
2018-02-08T10:13:27.459Z,3.50
2018-02-08T10:15:55.022Z,3.70
2018-02-08T10:18:22.563Z,3.80
2018-02-08T10:20:50.108Z,4.00
2018-02-08T10:23:18.442Z,3.80
2018-02-08T10:25:45.978Z,3.80
2018-02-08T10:28:25.535Z,3.90
2018-02-08T10:33:44.386Z,3.40
2018-02-08T10:36:11.926Z,3.40
2018-02-08T10:38:39.476Z,3.80
2018-02-08T10:41:07.811Z,4.30
2018-02-08T10:43:35.353Z,4.30
2018-02-08T10:46:02.880Z,4.90
2018-02-08T10:48:30.742Z,5.30
2018-02-08T10:50:59.080Z,5.60
2018-02-08T10:53:26.618Z,5.50
2018-02-08T10:55:54.172Z,5.50
2018-02-08T10:58:21.719Z,5.50
2018-02-08T11:00:49.263Z,5.80
2018-02-08T11:03:16.840Z,5.80
2018-02-08T11:05:44.380Z,6.10
2018-02-08T11:08:11.931Z,6.40
2018-02-08T11:10:39.715Z,6.70
2018-02-08T11:13:07.258Z,6.80
2018-02-08T11:15:35.561Z,6.60
2018-02-08T11:18:03.114Z,6.60
2018-02-08T11:20:31.428Z,7.20
2018-02-08T11:22:58.976Z,7.10
2018-02-08T11:25:26.946Z,7.00
2018-02-08T11:27:54.486Z,7.00
2018-02-08T11:30:22.447Z,6.90
2018-02-08T11:32:50.878Z,7.10
2018-02-08T11:35:18.420Z,7.10
2018-02-08T11:37:45.962Z,7.30
2018-02-08T11:40:25.172Z,7.50
2018-02-08T11:45:32.839Z,6.80
2018-02-08T11:48:00.388Z,6.80
2018-02-08T11:50:27.952Z,6.60
2018-02-08T11:52:56.039Z,6.30
2018-02-08T11:55:23.572Z,6.10
2018-02-08T11:57:51.114Z,6.10
2018-02-08T12:00:18.797Z,6.00
2018-02-08T12:02:46.334Z,6.00
2018-02-08T12:05:25.371Z,5.70
2018-02-08T12:10:46.466Z,5.80
2018-02-08T12:13:25.472Z,5.90
2018-02-08T12:21:01.448Z,6.00
2018-02-08T12:23:28.983Z,6.10
2018-02-08T12:25:56.526Z,5.90
2018-02-08T12:28:25.584Z,5.90
2018-02-08T12:30:53.915Z,5.90
2018-02-08T12:33:21.459Z,6.20
2018-02-08T12:35:50.672Z,6.50
2018-02-08T12:38:18.223Z,6.50
2018-02-08T12:40:45.774Z,6.70
2018-02-08T12:43:24.435Z,7.00
2018-02-08T12:52:02.376Z,7.00
2018-02-08T12:54:29.907Z,6.90
2018-02-08T12:56:57.452Z,7.00
2018-02-08T12:59:25.010Z,7.10
2018-02-08T13:01:52.542Z,7.00
2018-02-08T13:04:20.084Z,7.10
2018-02-08T13:06:48.172Z,7.00
2018-02-08T13:09:16.555Z,7.00
2018-02-08T13:11:44.095Z,6.90
2018-02-08T13:14:11.874Z,6.90
2018-02-08T13:16:39.411Z,7.00
2018-02-08T13:19:06.947Z,6.90
2018-02-08T13:21:34.531Z,6.80
2018-02-08T13:24:02.077Z,6.70
2018-02-08T13:26:29.619Z,6.70
2018-02-08T13:28:58.559Z,6.50
2018-02-08T13:31:26.259Z,6.50
2018-02-08T13:33:53.794Z,6.30
2018-02-08T13:36:21.896Z,6.10
2018-02-08T13:38:50.198Z,5.90
2018-02-08T13:41:19.534Z,5.90
2018-02-08T13:43:47.099Z,5.90
2018-02-08T13:46:17.179Z,5.60
2018-02-08T13:48:44.710Z,5.70
2018-02-08T13:51:19.683Z,5.70
2018-02-08T13:53:53.068Z,5.70
2018-02-08T13:56:24.506Z,5.70
2018-02-08T13:59:02.762Z,5.80
2018-02-08T14:04:32.674Z,5.60
2018-02-08T14:07:01.023Z,5.30
2018-02-08T14:09:28.608Z,5.30
2018-02-08T14:11:56.144Z,5.20
2018-02-08T14:14:23.759Z,5.20
2018-02-08T14:16:51.297Z,5.10
2018-02-08T14:19:18.826Z,5.10
2018-02-08T14:21:47.156Z,4.90
2018-02-08T14:24:17.251Z,4.80
2018-02-08T14:26:44.831Z,4.80
2018-02-08T14:29:12.869Z,4.80
2018-02-08T14:31:40.762Z,4.70
2018-02-08T14:34:08.414Z,4.60
2018-02-08T14:36:36.764Z,4.40
2018-02-08T14:39:05.181Z,4.10
2018-02-08T14:41:32.843Z,4.00
2018-02-08T14:44:01.729Z,3.80
2018-02-08T14:46:29.283Z,3.70
2018-02-08T14:48:56.832Z,3.60
2018-02-08T14:51:24.419Z,3.50
2018-02-08T14:53:51.965Z,3.40
2018-02-08T14:56:19.512Z,3.40
2018-02-08T14:58:47.544Z,3.30
2018-02-08T15:01:17.215Z,3.10
2018-02-08T15:03:44.771Z,3.10
2018-02-08T15:06:12.348Z,3.00
2018-02-08T15:08:39.899Z,2.90
2018-02-08T15:11:07.455Z,2.70
2018-02-08T15:13:35.033Z,2.50
2018-02-08T15:16:02.576Z,2.30
2018-02-08T15:18:30.267Z,2.10
2018-02-08T15:20:58.291Z,1.90
2018-02-08T15:23:25.846Z,1.70
2018-02-08T15:25:53.399Z,1.50
2018-02-08T15:28:20.974Z,1.60
2018-02-08T15:30:48.614Z,1.60
2018-02-08T15:33:16.721Z,1.60
2018-02-08T15:35:44.442Z,1.50
2018-02-08T15:38:12.034Z,1.50
2018-02-08T15:40:39.587Z,1.50
2018-02-08T15:43:07.636Z,1.50
2018-02-08T15:45:35.976Z,1.50
2018-02-08T15:48:03.535Z,1.50
2018-02-08T15:50:31.119Z,1.50
2018-02-08T15:53:08.821Z,1.50
2018-02-08T15:55:37.179Z,1.60
2018-02-08T15:58:04.735Z,1.60
2018-02-08T16:00:32.289Z,1.60
2018-02-08T16:03:00.695Z,1.70
2018-02-08T16:05:28.242Z,1.70
2018-02-08T16:07:55.847Z,1.60
2018-02-08T16:10:23.499Z,1.60
2018-02-08T16:12:51.819Z,1.50
2018-02-08T16:15:19.940Z,1.50
2018-02-08T16:17:48.291Z,1.50
2018-02-08T16:20:18.118Z,1.50
2018-02-08T16:22:45.671Z,1.50
2018-02-08T16:25:15.721Z,1.60
2018-02-08T16:27:43.268Z,1.50
2018-02-08T16:30:10.844Z,1.60
2018-02-08T16:32:38.439Z,1.70
2018-02-08T16:35:06.419Z,1.60
2018-02-08T16:37:33.973Z,1.60
2018-02-08T16:40:01.590Z,1.50
2018-02-08T16:42:29.908Z,1.50
2018-02-08T16:44:57.471Z,1.40
2018-02-08T16:47:25.831Z,1.50
2018-02-08T16:49:53.396Z,1.60
2018-02-08T16:52:20.944Z,1.60
2018-02-08T16:54:48.562Z,1.50
2018-02-08T16:57:16.996Z,1.50
2018-02-08T16:59:44.547Z,1.50
2018-02-08T17:02:12.107Z,1.40
2018-02-08T17:04:40.113Z,1.40
2018-02-08T17:07:07.664Z,1.30
2018-02-08T17:09:35.951Z,1.30
2018-02-08T17:12:03.500Z,1.30
2018-02-08T17:14:31.336Z,1.20
2018-02-08T17:16:58.906Z,1.30
2018-02-08T17:19:26.442Z,1.20
2018-02-08T17:21:54.750Z,1.10
2018-02-08T17:24:23.091Z,1.10
2018-02-08T17:26:50.766Z,1.10
2018-02-08T17:29:19.072Z,1.10
2018-02-08T17:31:47.367Z,1.10
2018-02-08T17:34:15.544Z,1.00
2018-02-08T17:36:43.467Z,1.00
2018-02-08T17:39:11.035Z,1.00
2018-02-08T17:41:38.639Z,1.00
2018-02-08T17:44:06.195Z,1.00
2018-02-08T17:46:34.722Z,1.10
2018-02-08T17:49:02.418Z,1.10
2018-02-08T17:51:30.939Z,1.10
2018-02-08T17:53:58.556Z,1.00
2018-02-08T17:56:26.099Z,1.00
2018-02-08T17:58:53.648Z,1.00
2018-02-08T18:01:21.988Z,1.00
2018-02-08T18:03:49.559Z,1.00
2018-02-08T18:06:25.723Z,1.10
2018-02-08T18:08:57.967Z,1.00
2018-02-08T18:11:25.525Z,1.10
2018-02-08T18:13:53.072Z,1.00
2018-02-08T18:16:20.659Z,1.00
2018-02-08T18:18:48.191Z,1.00
2018-02-08T18:21:16.518Z,1.10
2018-02-08T18:23:44.132Z,1.10
2018-02-08T18:26:11.667Z,1.10
2018-02-08T18:28:39.449Z,1.10
2018-02-08T18:31:07.142Z,1.00
2018-02-08T18:33:34.684Z,1.00
2018-02-08T18:36:02.229Z,0.90
2018-02-08T18:38:30.311Z,0.90
2018-02-08T18:40:57.864Z,0.90
2018-02-08T18:43:25.414Z,0.90
2018-02-08T18:45:52.976Z,0.90
2018-02-08T18:48:20.511Z,0.90
2018-02-08T18:50:48.052Z,0.90
2018-02-08T18:53:16.917Z,0.90
2018-02-08T18:55:44.462Z,0.90
2018-02-08T18:58:12.008Z,0.90
2018-02-08T19:00:39.616Z,0.90
2018-02-08T19:03:07.983Z,0.90
2018-02-08T19:05:35.568Z,0.90
2018-02-08T19:08:03.160Z,1.00
2018-02-08T19:10:30.699Z,1.00
2018-02-08T19:12:59.038Z,0.90
2018-02-08T19:15:26.684Z,0.90
2018-02-08T19:17:55.097Z,0.90
2018-02-08T19:20:22.800Z,0.90
2018-02-08T19:22:51.186Z,0.80
2018-02-08T19:25:19.955Z,0.80
2018-02-08T19:27:48.315Z,0.80
2018-02-08T19:30:17.312Z,0.80
2018-02-08T19:32:44.876Z,0.80
2018-02-08T19:35:12.417Z,0.90
2018-02-08T19:37:40.023Z,0.80
2018-02-08T19:40:07.979Z,0.80
2018-02-08T19:42:35.594Z,0.90
2018-02-08T19:45:03.359Z,0.90
2018-02-08T19:47:30.900Z,1.00
2018-02-08T19:49:58.450Z,0.90
2018-02-08T19:52:26.092Z,0.90
2018-02-08T19:54:53.703Z,1.00
2018-02-08T19:57:21.247Z,0.90
2018-02-08T19:59:48.980Z,0.90
2018-02-08T20:02:16.994Z,1.00
2018-02-08T20:04:44.540Z,1.00
2018-02-08T20:07:12.216Z,1.00
2018-02-08T20:09:39.756Z,1.00
2018-02-08T20:12:07.290Z,0.90
2018-02-08T20:17:35.955Z,0.90
2018-02-08T20:20:03.603Z,0.90
2018-02-08T20:22:31.235Z,0.80
2018-02-08T20:24:58.832Z,0.90
2018-02-08T20:27:26.723Z,0.90
2018-02-08T20:29:54.290Z,0.90
2018-02-08T20:32:21.851Z,0.90
2018-02-08T20:34:50.188Z,0.90
2018-02-08T20:37:17.733Z,0.90
2018-02-08T20:39:45.282Z,0.90
2018-02-08T20:42:19.683Z,0.90
2018-02-08T20:44:48.040Z,0.80
2018-02-08T20:47:17.287Z,0.80
2018-02-08T20:49:51.297Z,0.80
2018-02-08T20:52:18.874Z,0.80
2018-02-08T20:54:46.448Z,0.80
2018-02-08T20:57:16.360Z,0.80
2018-02-08T20:59:43.895Z,0.80
2018-02-08T21:02:11.636Z,0.80
2018-02-08T21:04:39.312Z,0.90
2018-02-08T21:07:06.852Z,0.90
2018-02-08T21:09:35.197Z,1.10
2018-02-08T21:12:02.815Z,1.00
2018-02-08T21:14:30.403Z,1.00
2018-02-08T21:16:58.052Z,1.00
2018-02-08T21:19:25.644Z,0.90
2018-02-08T21:21:53.347Z,0.90
2018-02-08T21:24:20.919Z,0.90
2018-02-08T21:26:48.526Z,0.90
2018-02-08T21:29:17.212Z,0.80
2018-02-08T21:31:44.766Z,0.70
2018-02-08T21:34:12.426Z,0.70
2018-02-08T21:36:39.968Z,0.80
2018-02-08T21:39:07.527Z,0.80
2018-02-08T21:41:35.109Z,0.70
2018-02-08T21:44:02.707Z,0.70
2018-02-08T21:46:31.017Z,0.80
2018-02-08T21:48:58.648Z,0.70
2018-02-08T21:51:26.964Z,0.70
2018-02-08T21:53:54.508Z,0.60
2018-02-08T21:56:22.415Z,0.70
2018-02-08T21:58:49.976Z,0.70
2018-02-08T22:01:17.545Z,0.80
2018-02-08T22:03:45.413Z,0.70
2018-02-08T22:06:14.607Z,0.80
2018-02-08T22:08:42.186Z,0.80
2018-02-08T22:11:10.114Z,0.80
2018-02-08T22:13:37.929Z,0.70
2018-02-08T22:16:07.193Z,0.70
2018-02-08T22:18:35.611Z,0.70
2018-02-08T22:23:38.650Z,0.70
2018-02-08T22:26:06.190Z,0.70
2018-02-08T22:28:33.735Z,0.70
2018-02-08T22:31:01.311Z,0.70
2018-02-08T22:33:28.851Z,0.60
2018-02-08T22:35:56.384Z,0.60
2018-02-08T22:38:24.580Z,0.60
2018-02-08T22:40:52.088Z,0.70
2018-02-08T22:43:19.652Z,0.70
2018-02-08T22:45:47.524Z,0.80
2018-02-08T22:48:16.454Z,0.70
2018-02-08T22:50:43.987Z,0.80
2018-02-08T22:53:11.560Z,0.80
2018-02-08T22:55:39.108Z,0.80
2018-02-08T22:58:06.643Z,0.80
2018-02-08T23:00:34.731Z,0.80
2018-02-08T23:03:02.283Z,0.70
2018-02-08T23:05:29.829Z,0.70
2018-02-08T23:07:57.397Z,0.70
2018-02-08T23:10:24.934Z,0.80
2018-02-08T23:12:52.487Z,0.70
2018-02-08T23:15:20.065Z,0.70
2018-02-08T23:17:47.602Z,0.60
2018-02-08T23:20:17.695Z,0.60
2018-02-08T23:22:45.862Z,0.60
2018-02-08T23:25:24.410Z,0.60
2018-02-08T23:30:31.807Z,0.50
2018-02-08T23:32:59.344Z,0.50
2018-02-08T23:35:26.905Z,0.40
2018-02-08T23:37:55.042Z,0.40
2018-02-08T23:40:22.593Z,0.40
2018-02-08T23:42:50.131Z,0.40
2018-02-08T23:45:18.495Z,0.40
2018-02-08T23:47:46.487Z,0.40
2018-02-08T23:50:15.555Z,0.40
2018-02-08T23:52:43.121Z,0.40
2018-02-08T23:55:10.667Z,0.40
2018-02-08T23:57:38.208Z,0.50
